createdAt,value
2019-05-26T00:00:16.774Z,9.50
2019-05-26T00:02:46.171Z,9.60
2019-05-26T00:05:15.807Z,9.64
2019-05-26T00:07:45.360Z,9.77
2019-05-26T00:10:15.395Z,9.82
2019-05-26T00:12:44.920Z,9.75
2019-05-26T00:15:15.008Z,9.77
2019-05-26T00:17:44.410Z,9.79
2019-05-26T00:20:14.185Z,9.85
2019-05-26T00:22:43.821Z,9.85
2019-05-26T00:25:13.399Z,9.91
2019-05-26T00:27:42.814Z,9.94
2019-05-26T00:30:13.103Z,9.89
2019-05-26T00:32:42.624Z,9.91
2019-05-26T00:35:12.646Z,9.92
2019-05-26T00:37:50.555Z,9.81
2019-05-26T00:40:13.371Z,9.80
2019-05-26T00:42:42.777Z,9.88
2019-05-26T00:45:14.136Z,9.85
2019-05-26T00:47:43.887Z,9.89
2019-05-26T00:50:13.783Z,9.98
2019-05-26T00:52:43.251Z,9.93
2019-05-26T00:55:13.116Z,9.85
2019-05-26T00:57:42.707Z,9.95
2019-05-26T01:00:12.799Z,9.86
2019-05-26T01:02:42.251Z,9.78
2019-05-26T01:05:12.787Z,9.74
2019-05-26T01:07:42.236Z,9.71
2019-05-26T01:10:11.987Z,9.71
2019-05-26T01:12:41.858Z,9.75
2019-05-26T01:15:11.562Z,9.77
2019-05-26T01:17:41.411Z,9.76
2019-05-26T01:20:11.847Z,9.77
2019-05-26T01:22:41.344Z,9.75
2019-05-26T01:25:11.183Z,9.92
2019-05-26T01:27:40.611Z,9.93
2019-05-26T01:30:10.662Z,10.04
2019-05-26T01:32:40.180Z,10.05
2019-05-26T01:35:10.043Z,10.07
2019-05-26T01:37:40.020Z,10.14
2019-05-26T01:40:10.870Z,10.23
2019-05-26T01:42:40.359Z,10.23
2019-05-26T01:45:10.118Z,10.35
2019-05-26T01:47:39.608Z,10.40
2019-05-26T01:50:09.672Z,10.39
2019-05-26T01:52:39.270Z,10.35
2019-05-26T01:55:09.065Z,10.47
2019-05-26T01:57:38.674Z,10.54
2019-05-26T02:00:09.407Z,10.42
2019-05-26T02:02:39.167Z,10.47
2019-05-26T02:05:08.654Z,10.47
2019-05-26T02:07:39.143Z,10.39
2019-05-26T02:10:08.815Z,10.38
2019-05-26T02:12:38.627Z,10.44
2019-05-26T02:15:09.358Z,10.38
2019-05-26T02:17:38.936Z,10.41
2019-05-26T02:20:08.919Z,10.45
2019-05-26T02:22:38.529Z,10.51
2019-05-26T02:25:09.174Z,10.46
2019-05-26T02:27:39.771Z,10.45
2019-05-26T02:30:29.976Z,10.44
2019-05-26T02:32:59.634Z,10.42
2019-05-26T02:35:29.105Z,10.34
2019-05-26T02:37:58.523Z,10.29
2019-05-26T02:40:28.279Z,10.29
2019-05-26T02:42:58.445Z,10.26
2019-05-26T02:45:28.072Z,10.26
2019-05-26T02:47:58.358Z,10.24
2019-05-26T02:50:27.896Z,10.24
2019-05-26T02:52:57.816Z,10.23
2019-05-26T02:55:27.366Z,10.23
2019-05-26T02:57:57.744Z,10.20
2019-05-26T03:00:42.473Z,10.22
2019-05-26T03:03:13.367Z,10.28
2019-05-26T03:05:45.090Z,10.29
2019-05-26T03:08:16.296Z,10.36
2019-05-26T03:10:46.090Z,10.34
2019-05-26T03:13:18.262Z,10.41
2019-05-26T03:15:47.939Z,10.51
2019-05-26T03:18:18.021Z,10.56
2019-05-26T03:20:47.492Z,10.67
2019-05-26T03:23:17.999Z,10.75
2019-05-26T03:25:47.679Z,10.83
2019-05-26T03:28:17.198Z,10.84
2019-05-26T03:30:46.613Z,10.96
2019-05-26T03:33:16.621Z,11.03
2019-05-26T03:35:46.115Z,11.07
2019-05-26T03:38:15.553Z,11.04
2019-05-26T03:40:45.162Z,11.05
2019-05-26T03:43:14.771Z,11.10
2019-05-26T03:45:47.429Z,11.12
2019-05-26T03:48:17.296Z,11.12
2019-05-26T03:50:46.969Z,11.27
2019-05-26T03:53:16.417Z,11.34
2019-05-26T03:55:45.833Z,11.43
2019-05-26T03:58:15.995Z,11.56
2019-05-26T04:00:45.405Z,11.66
2019-05-26T04:03:16.360Z,11.76
2019-05-26T04:05:47.307Z,11.83
2019-05-26T04:08:16.790Z,11.90
2019-05-26T04:10:46.191Z,12.03
2019-05-26T04:13:15.648Z,12.22
2019-05-26T04:15:45.060Z,12.29
2019-05-26T04:18:14.579Z,12.42
2019-05-26T04:20:46.010Z,12.46
2019-05-26T04:23:15.163Z,12.53
2019-05-26T04:25:44.742Z,12.57
2019-05-26T04:28:14.189Z,12.65
2019-05-26T04:30:43.758Z,12.68
2019-05-26T04:33:13.994Z,12.80
2019-05-26T04:35:43.544Z,12.82
2019-05-26T04:38:13.059Z,12.91
2019-05-26T04:40:42.669Z,12.93
2019-05-26T04:43:14.872Z,12.94
2019-05-26T04:45:43.366Z,13.00
2019-05-26T04:48:12.778Z,12.95
2019-05-26T04:50:42.303Z,13.04
2019-05-26T04:53:11.720Z,13.09
2019-05-26T04:55:41.190Z,13.18
2019-05-26T04:58:10.650Z,13.26
2019-05-26T05:00:40.110Z,13.32
2019-05-26T05:03:09.508Z,13.43
2019-05-26T05:05:38.954Z,13.56
2019-05-26T05:08:08.365Z,13.63
2019-05-26T05:10:42.504Z,13.70
2019-05-26T05:13:08.926Z,13.78
2019-05-26T05:15:38.405Z,13.80
2019-05-26T05:18:07.852Z,13.84
2019-05-26T05:20:37.667Z,13.93
2019-05-26T05:23:07.169Z,13.91
2019-05-26T05:25:36.616Z,14.05
2019-05-26T05:28:06.030Z,13.99
2019-05-26T05:30:35.500Z,14.11
2019-05-26T05:33:04.967Z,14.05
2019-05-26T05:35:35.963Z,14.03
2019-05-26T05:38:05.415Z,14.17
2019-05-26T05:40:34.869Z,14.15
2019-05-26T05:43:05.775Z,14.21
2019-05-26T05:45:35.212Z,14.20
2019-05-26T05:48:05.243Z,14.28
2019-05-26T05:50:34.680Z,14.31
2019-05-26T05:53:04.316Z,14.46
2019-05-26T05:55:33.804Z,14.59
2019-05-26T05:58:03.450Z,14.65
2019-05-26T06:00:32.936Z,14.64
2019-05-26T06:03:02.438Z,14.73
2019-05-26T06:05:31.967Z,14.83
2019-05-26T06:08:01.417Z,14.81
2019-05-26T06:10:30.855Z,14.99
2019-05-26T06:13:00.325Z,15.02
2019-05-26T06:15:29.739Z,14.98
2019-05-26T06:17:59.198Z,15.20
2019-05-26T06:20:28.619Z,15.05
2019-05-26T06:22:58.069Z,15.11
2019-05-26T06:25:27.475Z,15.33
2019-05-26T06:27:56.989Z,15.51
2019-05-26T06:30:26.670Z,15.35
2019-05-26T06:32:56.401Z,15.37
2019-05-26T06:35:25.883Z,15.36
2019-05-26T06:37:55.356Z,15.49
2019-05-26T06:40:25.579Z,15.47
2019-05-26T06:42:55.042Z,15.41
2019-05-26T06:45:24.692Z,15.27
2019-05-26T06:47:54.274Z,15.31
2019-05-26T06:50:23.829Z,15.31
2019-05-26T06:52:55.028Z,15.30
2019-05-26T06:55:24.498Z,15.42
2019-05-26T06:57:53.964Z,15.56
2019-05-26T07:00:23.647Z,15.88
2019-05-26T07:02:53.253Z,16.16
2019-05-26T07:05:22.666Z,16.09
2019-05-26T07:07:52.091Z,16.03
2019-05-26T07:10:21.624Z,15.96
2019-05-26T07:12:51.118Z,16.04
2019-05-26T07:15:20.863Z,16.29
2019-05-26T07:17:50.448Z,16.39
2019-05-26T07:20:19.999Z,16.39
2019-05-26T07:22:49.843Z,16.34
2019-05-26T07:25:19.644Z,16.30
2019-05-26T07:27:49.785Z,16.15
2019-05-26T07:30:23.420Z,16.01
2019-05-26T07:32:52.111Z,15.99
2019-05-26T07:35:21.642Z,16.16
2019-05-26T07:37:51.240Z,16.20
2019-05-26T07:40:20.726Z,16.32
2019-05-26T07:42:50.181Z,16.46
2019-05-26T07:45:19.869Z,16.62
2019-05-26T07:47:49.468Z,17.19
2019-05-26T07:50:19.162Z,17.77
2019-05-26T07:52:48.585Z,17.91
2019-05-26T07:55:18.639Z,18.29
2019-05-26T07:57:48.199Z,18.16
2019-05-26T08:00:19.611Z,18.45
2019-05-26T08:02:49.085Z,18.80
2019-05-26T08:05:18.715Z,19.35
2019-05-26T08:07:48.159Z,19.44
2019-05-26T08:10:18.302Z,19.47
2019-05-26T08:12:47.910Z,19.82
2019-05-26T08:15:18.885Z,19.76
2019-05-26T08:17:48.497Z,19.86
2019-05-26T08:20:19.352Z,19.33
2019-05-26T08:22:48.814Z,19.66
2019-05-26T08:25:18.406Z,19.64
2019-05-26T08:27:47.851Z,19.63
2019-05-26T08:30:17.696Z,19.93
2019-05-26T08:32:47.207Z,20.26
2019-05-26T08:35:16.865Z,20.27
2019-05-26T08:37:46.455Z,21.01
2019-05-26T08:40:19.598Z,21.01
2019-05-26T08:42:52.862Z,20.58
2019-05-26T08:45:23.235Z,20.46
2019-05-26T08:47:53.356Z,20.86
2019-05-26T08:50:23.000Z,21.39
2019-05-26T08:52:52.484Z,21.51
2019-05-26T08:55:22.344Z,21.82
2019-05-26T08:57:51.854Z,21.75
2019-05-26T09:00:21.591Z,21.45
2019-05-26T09:02:51.782Z,20.92
2019-05-26T09:05:22.022Z,20.78
2019-05-26T09:07:51.633Z,20.87
2019-05-26T09:10:21.105Z,21.09
2019-05-26T09:13:00.138Z,21.20
2019-05-26T09:15:21.898Z,22.20
2019-05-26T09:17:51.368Z,22.47
2019-05-26T09:20:21.293Z,22.71
2019-05-26T09:22:50.725Z,22.15
2019-05-26T09:25:20.131Z,22.09
2019-05-26T09:27:51.143Z,22.22
2019-05-26T09:30:21.207Z,22.25
2019-05-26T09:32:50.943Z,22.30
2019-05-26T09:35:20.419Z,22.40
2019-05-26T09:37:49.880Z,22.40
2019-05-26T09:40:20.412Z,22.39
2019-05-26T09:42:49.858Z,22.17
2019-05-26T09:45:19.504Z,22.44
2019-05-26T09:47:49.770Z,22.17
2019-05-26T09:50:21.295Z,22.82
2019-05-26T09:52:50.721Z,22.99
2019-05-26T09:55:20.410Z,23.55
2019-05-26T09:57:49.917Z,23.97
2019-05-26T10:00:19.678Z,23.52
2019-05-26T10:02:50.670Z,22.91
2019-05-26T10:05:20.634Z,22.69
2019-05-26T10:07:50.068Z,22.54
2019-05-26T10:10:19.798Z,23.48
2019-05-26T10:12:49.498Z,23.48
2019-05-26T10:15:19.033Z,23.78
2019-05-26T10:17:48.549Z,24.38
2019-05-26T10:20:18.192Z,24.75
2019-05-26T10:22:47.636Z,24.02
2019-05-26T10:25:17.305Z,23.38
2019-05-26T10:27:46.926Z,22.83
2019-05-26T10:30:17.260Z,23.27
2019-05-26T10:32:46.965Z,23.42
2019-05-26T10:35:16.707Z,23.39
2019-05-26T10:37:46.142Z,23.10
2019-05-26T10:40:16.970Z,22.86
2019-05-26T10:42:46.419Z,23.56
2019-05-26T10:45:16.446Z,23.64
2019-05-26T10:47:45.939Z,23.36
2019-05-26T10:50:15.877Z,22.70
2019-05-26T10:52:45.329Z,23.19
2019-05-26T10:55:14.960Z,22.83
2019-05-26T10:57:44.739Z,22.32
2019-05-26T11:00:15.540Z,22.35
2019-05-26T11:02:45.281Z,21.94
2019-05-26T11:05:15.114Z,22.03
2019-05-26T11:07:44.555Z,22.03
2019-05-26T11:10:14.322Z,22.24
2019-05-26T11:12:43.753Z,22.52
2019-05-26T11:15:14.593Z,22.14
2019-05-26T11:17:44.070Z,21.95
2019-05-26T11:20:15.890Z,21.63
2019-05-26T11:22:45.376Z,21.63
2019-05-26T11:25:14.978Z,21.68
2019-05-26T11:27:44.709Z,21.88
2019-05-26T11:30:15.150Z,21.93
2019-05-26T11:32:44.664Z,21.97
2019-05-26T11:35:15.543Z,22.12
2019-05-26T11:37:44.992Z,21.97
2019-05-26T11:40:16.244Z,22.30
2019-05-26T11:42:45.764Z,22.03
2019-05-26T11:45:15.775Z,22.19
2019-05-26T11:47:46.855Z,22.31
2019-05-26T11:50:17.514Z,22.32
2019-05-26T11:52:47.047Z,22.22
2019-05-26T11:55:16.974Z,22.31
2019-05-26T11:57:46.480Z,22.55
2019-05-26T12:00:17.165Z,22.42
2019-05-26T12:02:47.108Z,22.17
2019-05-26T12:05:17.924Z,22.04
2019-05-26T12:07:47.866Z,22.34
2019-05-26T12:10:19.210Z,22.50
2019-05-26T12:12:48.649Z,23.09
2019-05-26T12:15:18.488Z,22.71
2019-05-26T12:17:47.955Z,22.45
2019-05-26T12:20:17.923Z,22.09
2019-05-26T12:22:47.464Z,22.20
2019-05-26T12:25:17.105Z,21.95
2019-05-26T12:27:46.719Z,21.75
2019-05-26T12:30:17.026Z,21.69
2019-05-26T12:32:46.537Z,21.51
2019-05-26T12:35:16.095Z,21.43
2019-05-26T12:37:48.284Z,21.86
2019-05-26T12:40:17.272Z,22.21
2019-05-26T12:42:48.288Z,22.82
2019-05-26T12:45:19.589Z,22.93
2019-05-26T12:47:49.041Z,22.95
2019-05-26T12:50:18.919Z,22.94
2019-05-26T12:52:48.355Z,22.75
2019-05-26T12:55:19.442Z,22.59
2019-05-26T12:57:48.877Z,22.38
2019-05-26T13:00:18.824Z,22.24
2019-05-26T13:02:48.670Z,22.42
2019-05-26T13:05:20.305Z,22.43
2019-05-26T13:07:49.741Z,22.22
2019-05-26T13:10:20.949Z,22.11
2019-05-26T13:12:50.456Z,22.20
2019-05-26T13:15:20.512Z,22.12
2019-05-26T13:17:49.994Z,22.14
2019-05-26T13:20:20.250Z,21.96
2019-05-26T13:22:49.696Z,21.55
2019-05-26T13:25:20.767Z,21.55
2019-05-26T13:27:50.176Z,21.48
2019-05-26T13:30:25.506Z,21.11
2019-05-26T13:32:54.904Z,21.27
2019-05-26T13:35:24.596Z,21.38
2019-05-26T13:37:53.998Z,21.40
2019-05-26T13:40:23.855Z,21.38
2019-05-26T13:42:53.243Z,21.52
2019-05-26T13:45:23.651Z,21.50
2019-05-26T13:47:53.474Z,21.12
2019-05-26T13:50:24.243Z,21.10
2019-05-26T13:52:53.706Z,20.94
2019-05-26T13:55:23.528Z,20.56
2019-05-26T13:57:53.369Z,20.24
2019-05-26T14:00:23.643Z,20.28
2019-05-26T14:02:53.158Z,20.14
2019-05-26T14:05:22.831Z,19.68
2019-05-26T14:07:52.798Z,19.32
2019-05-26T14:10:34.152Z,18.92
2019-05-26T14:13:04.098Z,18.82
2019-05-26T14:15:38.469Z,18.57
2019-05-26T14:18:05.866Z,18.40
2019-05-26T14:20:37.181Z,18.17
2019-05-26T14:23:07.745Z,17.90
2019-05-26T14:25:37.516Z,17.68
2019-05-26T14:28:08.695Z,17.57
2019-05-26T14:30:38.199Z,17.45
2019-05-26T14:33:07.723Z,17.45
2019-05-26T14:35:37.414Z,17.29
2019-05-26T14:38:06.857Z,17.01
2019-05-26T14:40:36.392Z,16.87
2019-05-26T14:43:06.329Z,16.81
2019-05-26T14:45:36.141Z,16.75
2019-05-26T14:48:06.335Z,16.82
2019-05-26T14:50:36.132Z,16.86
2019-05-26T14:53:05.631Z,17.02
2019-05-26T14:55:35.298Z,17.02
2019-05-26T14:58:15.250Z,16.86
2019-05-26T15:00:37.118Z,16.86
2019-05-26T15:03:06.933Z,16.85
2019-05-26T15:05:36.374Z,16.85
2019-05-26T15:08:07.362Z,16.92
2019-05-26T15:10:36.755Z,16.79
2019-05-26T15:13:09.177Z,16.74
2019-05-26T15:15:38.607Z,17.01
2019-05-26T15:18:08.025Z,17.04
2019-05-26T15:20:37.572Z,17.34
2019-05-26T15:23:07.113Z,17.34
2019-05-26T15:25:36.531Z,17.25
2019-05-26T15:28:06.328Z,17.22
2019-05-26T15:30:35.809Z,17.29
2019-05-26T15:33:05.784Z,17.10
2019-05-26T15:35:35.387Z,17.02
2019-05-26T15:38:04.817Z,16.93
2019-05-26T15:40:34.303Z,17.16
2019-05-26T15:43:04.711Z,17.16
2019-05-26T15:45:34.362Z,17.13
2019-05-26T15:48:03.927Z,16.96
2019-05-26T15:50:33.407Z,16.82
2019-05-26T15:53:02.809Z,16.75
2019-05-26T15:55:32.505Z,16.64
2019-05-26T15:58:01.903Z,16.31
2019-05-26T16:00:31.407Z,16.31
2019-05-26T16:03:00.891Z,16.07
2019-05-26T16:05:30.394Z,15.97
2019-05-26T16:07:59.887Z,15.98
2019-05-26T16:10:29.321Z,16.02
2019-05-26T16:12:58.788Z,16.00
2019-05-26T16:15:28.222Z,16.02
2019-05-26T16:17:57.631Z,15.95
2019-05-26T16:20:27.084Z,15.93
2019-05-26T16:22:56.488Z,15.90
2019-05-26T16:25:25.926Z,15.76
2019-05-26T16:27:55.414Z,15.79
2019-05-26T16:30:25.069Z,15.86
2019-05-26T16:32:54.470Z,15.80
2019-05-26T16:35:23.984Z,15.68
2019-05-26T16:37:53.457Z,15.58
2019-05-26T16:40:24.424Z,15.50
2019-05-26T16:42:53.825Z,15.55
2019-05-26T16:45:23.415Z,15.54
2019-05-26T16:47:52.815Z,15.49
2019-05-26T16:50:22.259Z,15.54
2019-05-26T16:52:54.484Z,15.62
2019-05-26T16:55:23.112Z,15.51
2019-05-26T16:57:52.536Z,15.49
2019-05-26T17:00:22.207Z,15.47
2019-05-26T17:02:51.723Z,15.49
2019-05-26T17:05:21.248Z,15.53
2019-05-26T17:07:50.729Z,15.55
2019-05-26T17:10:20.527Z,15.49
2019-05-26T17:12:49.935Z,15.56
2019-05-26T17:15:19.423Z,15.45
2019-05-26T17:17:48.858Z,15.59
2019-05-26T17:20:20.574Z,15.64
2019-05-26T17:22:50.229Z,15.60
2019-05-26T17:25:20.029Z,15.57
2019-05-26T17:27:49.443Z,15.57
2019-05-26T17:30:22.164Z,15.64
2019-05-26T17:32:50.436Z,15.65
2019-05-26T17:35:20.203Z,15.65
2019-05-26T17:37:49.790Z,15.58
2019-05-26T17:40:22.874Z,15.66
2019-05-26T17:42:52.907Z,15.70
2019-05-26T17:45:22.480Z,15.66
2019-05-26T17:47:53.494Z,15.77
2019-05-26T17:50:23.112Z,15.77
2019-05-26T17:52:52.564Z,15.78
2019-05-26T17:55:21.994Z,15.73
2019-05-26T17:57:51.460Z,15.71
2019-05-26T18:00:21.449Z,15.71
2019-05-26T18:02:51.051Z,15.53
2019-05-26T18:05:20.627Z,15.42
2019-05-26T18:07:50.141Z,15.27
2019-05-26T18:10:19.796Z,15.23
2019-05-26T18:12:49.267Z,15.04
2019-05-26T18:15:20.581Z,14.92
2019-05-26T18:17:50.311Z,14.84
2019-05-26T18:20:19.951Z,14.77
2019-05-26T18:22:49.439Z,14.63
2019-05-26T18:25:18.904Z,14.55
2019-05-26T18:27:48.370Z,14.43
2019-05-26T18:30:18.790Z,14.38
2019-05-26T18:32:48.299Z,14.32
2019-05-26T18:35:19.407Z,14.27
2019-05-26T18:37:52.142Z,14.23
2019-05-26T18:40:20.137Z,14.23
2019-05-26T18:42:49.685Z,14.23
2019-05-26T18:45:19.330Z,14.20
2019-05-26T18:48:01.735Z,14.13
2019-05-26T18:50:19.972Z,14.09
2019-05-26T18:52:49.401Z,14.02
2019-05-26T18:55:18.789Z,14.04
2019-05-26T18:57:48.242Z,13.98
2019-05-26T19:00:17.986Z,14.00
2019-05-26T19:02:47.518Z,13.94
2019-05-26T19:05:31.907Z,13.88
2019-05-26T19:07:48.099Z,13.87
2019-05-26T19:10:17.881Z,13.80
2019-05-26T19:12:47.485Z,13.81
2019-05-26T19:15:17.258Z,13.80
2019-05-26T19:17:46.709Z,13.80
2019-05-26T19:20:17.483Z,13.79
2019-05-26T19:22:47.050Z,13.78
2019-05-26T19:25:16.627Z,13.76
2019-05-26T19:27:46.081Z,13.80
2019-05-26T19:30:16.073Z,13.79
2019-05-26T19:32:45.829Z,13.80
2019-05-26T19:35:15.592Z,13.77
2019-05-26T19:37:45.150Z,13.76
2019-05-26T19:40:15.097Z,13.78
2019-05-26T19:42:44.610Z,13.76
2019-05-26T19:45:14.819Z,13.82
2019-05-26T19:47:44.258Z,13.81
2019-05-26T19:50:14.217Z,13.74
2019-05-26T19:52:43.797Z,13.73
2019-05-26T19:55:13.582Z,13.76
2019-05-26T19:57:43.168Z,13.73
2019-05-26T20:00:14.948Z,13.67
2019-05-26T20:02:44.380Z,13.70
2019-05-26T20:05:14.509Z,13.66
2019-05-26T20:07:44.103Z,13.67
2019-05-26T20:10:13.778Z,13.71
2019-05-26T20:12:43.334Z,13.66
2019-05-26T20:15:13.646Z,13.75
2019-05-26T20:17:43.166Z,13.71
2019-05-26T20:20:13.417Z,13.75
2019-05-26T20:22:42.866Z,13.75
2019-05-26T20:25:12.800Z,13.72
2019-05-26T20:27:42.312Z,13.73
2019-05-26T20:30:12.101Z,13.72
2019-05-26T20:32:41.672Z,13.75
2019-05-26T20:35:11.429Z,13.77
2019-05-26T20:37:40.860Z,13.78
2019-05-26T20:40:10.708Z,13.75
2019-05-26T20:42:40.135Z,13.80
2019-05-26T20:45:10.145Z,13.79
2019-05-26T20:47:39.580Z,13.79
2019-05-26T20:50:09.848Z,13.81
2019-05-26T20:52:39.511Z,13.81
2019-05-26T20:55:09.770Z,13.87
2019-05-26T20:57:39.205Z,13.78
2019-05-26T21:00:12.431Z,13.83
2019-05-26T21:02:42.360Z,13.78
2019-05-26T21:05:11.970Z,13.75
2019-05-26T21:07:41.608Z,13.82
2019-05-26T21:10:11.478Z,13.77
2019-05-26T21:12:41.001Z,13.84
2019-05-26T21:15:11.968Z,13.84
2019-05-26T21:17:41.413Z,13.83
2019-05-26T21:20:11.219Z,13.79
2019-05-26T21:22:40.842Z,13.81
2019-05-26T21:25:10.988Z,13.89
2019-05-26T21:27:40.418Z,13.86
2019-05-26T21:30:11.412Z,13.88
2019-05-26T21:32:40.847Z,13.87
2019-05-26T21:35:10.697Z,13.89
2019-05-26T21:37:40.103Z,13.90
2019-05-26T21:40:11.274Z,13.89
2019-05-26T21:42:40.853Z,13.86
2019-05-26T21:45:10.718Z,13.86
2019-05-26T21:47:41.301Z,13.85
2019-05-26T21:50:11.176Z,13.86
2019-05-26T21:52:40.600Z,13.85
2019-05-26T21:55:10.388Z,13.89
2019-05-26T21:57:41.377Z,13.94
2019-05-26T22:00:13.269Z,13.88
2019-05-26T22:02:42.717Z,13.89
2019-05-26T22:05:12.673Z,13.84
2019-05-26T22:07:42.114Z,13.88
2019-05-26T22:10:11.991Z,13.84
2019-05-26T22:12:41.426Z,13.84
2019-05-26T22:15:11.702Z,13.84
2019-05-26T22:17:41.261Z,13.84
2019-05-26T22:20:11.070Z,13.85
2019-05-26T22:22:40.657Z,13.83
2019-05-26T22:25:10.346Z,13.92
2019-05-26T22:27:39.786Z,13.95
2019-05-26T22:30:10.770Z,13.88
2019-05-26T22:32:40.174Z,13.86
2019-05-26T22:35:10.077Z,13.85
2019-05-26T22:37:39.480Z,13.83
2019-05-26T22:40:09.200Z,13.83
2019-05-26T22:42:38.789Z,13.89
2019-05-26T22:45:09.842Z,13.79
2019-05-26T22:47:39.345Z,13.81
2019-05-26T22:50:10.229Z,13.75
2019-05-26T22:52:39.673Z,13.75
2019-05-26T22:55:09.522Z,13.76
2019-05-26T22:57:38.978Z,13.81
2019-05-26T23:00:09.766Z,13.67
2019-05-26T23:02:39.402Z,13.64
2019-05-26T23:05:21.881Z,13.67
2019-05-26T23:07:51.435Z,13.60
2019-05-26T23:10:21.160Z,13.64
2019-05-26T23:12:50.602Z,13.70
2019-05-26T23:15:20.340Z,13.64
2019-05-26T23:17:49.779Z,13.60
2019-05-26T23:20:19.463Z,13.56
2019-05-26T23:22:48.995Z,13.56
2019-05-26T23:25:18.672Z,13.47
2019-05-26T23:27:48.118Z,13.49
2019-05-26T23:30:17.976Z,13.50
2019-05-26T23:32:47.500Z,13.44
2019-05-26T23:35:16.900Z,13.41
2019-05-26T23:37:46.445Z,13.43
2019-05-26T23:40:16.162Z,13.42
2019-05-26T23:42:45.621Z,13.28
2019-05-26T23:45:15.158Z,13.19
2019-05-26T23:47:44.604Z,13.10
2019-05-26T23:50:14.073Z,13.04
2019-05-26T23:52:44.747Z,13.01
2019-05-26T23:55:14.606Z,12.94
2019-05-26T23:57:44.057Z,12.91
